Rochefort, Belgium
Current Conditions -  °F | °C
As of 5:25 AM on Tuesday 21 Oct 2014 (Local Time) from EBFS Reporting Station
Broken Clouds Broken Clouds  
Wind Chill: 50°   Ceiling: 1100
Heat Index: 50°   Visibility: 6mi
Dew Point: 48°   Wind: 12mph
Humidity: 94%   Direction: 220°SW
Pressure: 29.88"   Gusts: NA
Location:  50.16°N, 5.22°E
Report Text: EBFS 210325Z 22010KT 9999 FEW006 SCT009 BKN011 10/09 Q1012 GRN
Loading
Personal Weather Stations






























Interactive Weather Map
Tropical Storm Tracking
New forecast layout! Learn more

10-Day Weather Forecast

Advertisements
Track Severe Weather on mobile